Time;durP1;ratioP1;P1;durP2;ratioP2;P2;SDS_P1;SDS_P2;PMS_P1;PMS_P2;Temp;Humidity;BMP_temperature;BMP_pressure;BME280_temperature;BME280_humidity;BME280_pressure;Samples;Min_cycle;Max_cycle;Signal;HPM_P1;HPM_P2
2022/06/27 00:00:32;;;;;;;1.17;0.80;;;;;;;27.34;44.99;93473.28;5055449;28;20710;-65
2022/06/27 00:03:16;;;;;;;1.73;0.70;;;;;;;27.44;44.64;93473.28;5054218;28;20228;-65
2022/06/27 00:06:00;;;;;;;3.67;0.80;;;;;;;27.14;45.51;93481.88;5053195;28;20243;-63
2022/06/27 00:08:44;;;;;;;0.93;0.90;;;;;;;27.33;45.11;93468.97;5051700;28;20271;-64
2022/06/27 00:11:28;;;;;;;1.50;0.80;;;;;;;26.88;46.25;93463.13;5055033;28;20603;-63
2022/06/27 00:14:12;;;;;;;1.30;0.80;;;;;;;26.56;47.00;93457.22;5051891;28;20586;-63
2022/06/27 00:16:56;;;;;;;0.80;0.80;;;;;;;26.71;46.78;93463.75;5050726;28;20214;-63
2022/06/27 00:19:40;;;;;;;1.93;0.83;;;;;;;26.94;46.54;93471.75;5056684;28;20279;-63
2022/06/27 00:22:26;;;;;;;1.23;1.03;;;;;;;27.33;46.10;93486.22;5057321;28;20264;-63
2022/06/27 00:25:11;;;;;;;1.93;0.80;;;;;;;27.39;45.51;93483.34;5042508;28;20268;-62
2022/06/27 00:27:55;;;;;;;1.10;1.10;;;;;;;27.41;45.67;93491.97;5053847;28;20260;-63
2022/06/27 00:30:39;;;;;;;2.77;1.00;;;;;;;27.34;45.75;93499.88;5045333;28;20207;-63
2022/06/27 00:33:23;;;;;;;2.20;0.90;;;;;;;27.52;45.63;93502.09;5049311;28;20983;-63
2022/06/27 00:36:07;;;;;;;1.27;0.90;;;;;;;27.43;45.34;93506.38;5049295;28;20679;-63
2022/06/27 00:38:51;;;;;;;1.63;1.30;;;;;;;27.33;46.03;93515.00;5058590;28;20277;-63
2022/06/27 00:41:36;;;;;;;3.43;0.80;;;;;;;27.21;46.12;93515.69;5041754;28;20697;-63
2022/06/27 00:44:31;;;;;;;2.20;1.33;;;;;;;27.29;46.25;93514.97;5076974;28;20198;-63
2022/06/27 00:47:16;;;;;;;1.20;0.80;;;;;;;26.89;47.23;93519.19;5057123;28;20255;-63
2022/06/27 00:50:00;;;;;;;2.00;0.90;;;;;;;27.28;46.36;93530.81;5049848;28;20197;-63
2022/06/27 00:52:45;;;;;;;0.90;0.90;;;;;;;27.15;46.45;93529.34;5046936;28;20252;-63
2022/06/27 00:55:30;;;;;;;2.90;1.13;;;;;;;26.87;47.66;93527.78;5058134;28;20898;-63
2022/06/27 00:58:14;;;;;;;1.90;1.03;;;;;;;27.11;46.57;93524.28;5049540;28;20224;-63
2022/06/27 01:00:58;;;;;;;3.13;1.00;;;;;;;27.08;46.78;93525.00;5050881;28;20220;-63
2022/06/27 01:03:42;;;;;;;1.47;1.37;;;;;;;26.81;47.74;93536.38;5053503;28;20225;-63
2022/06/27 01:06:27;;;;;;;5.03;1.30;;;;;;;26.96;47.09;93534.31;5056970;28;20621;-63
2022/06/27 01:09:11;;;;;;;2.93;1.40;;;;;;;26.84;48.38;93534.25;5059103;28;20280;-62
2022/06/27 01:11:56;;;;;;;6.43;1.30;;;;;;;26.98;47.61;93546.53;5046630;28;20266;-63
2022/06/27 01:14:40;;;;;;;1.43;1.20;;;;;;;26.93;47.76;93550.09;5061681;28;20560;-62
2022/06/27 01:17:24;;;;;;;3.80;1.30;;;;;;;26.95;47.73;93553.00;5053451;28;20290;-63
2022/06/27 01:20:09;;;;;;;1.30;1.00;;;;;;;26.75;48.08;93553.59;5048593;28;20275;-63
2022/06/27 01:22:54;;;;;;;2.33;1.67;;;;;;;26.86;47.78;93551.47;5060100;28;20255;-63
2022/06/27 01:25:40;;;;;;;2.73;1.53;;;;;;;26.85;47.89;93562.25;5061720;28;20208;-63
2022/06/27 01:28:24;;;;;;;1.97;1.77;;;;;;;26.91;47.76;93550.81;5049738;28;20217;-63
2022/06/27 01:31:13;;;;;;;1.57;1.40;;;;;;;26.55;48.98;93542.72;5050920;28;20205;-63
2022/06/27 01:33:57;;;;;;;3.20;1.40;;;;;;;26.76;48.66;93566.53;5056776;28;20294;-63
2022/06/27 01:36:42;;;;;;;1.77;1.30;;;;;;;26.94;48.29;93560.91;5055161;28;20216;-63
2022/06/27 01:39:28;;;;;;;1.90;1.70;;;;;;;26.81;48.41;93561.53;5060156;28;20218;-63
2022/06/27 01:42:16;;;;;;;4.23;1.70;;;;;;;26.94;48.45;93575.28;5056999;28;20686;-63
2022/06/27 01:45:01;;;;;;;2.37;1.47;;;;;;;26.77;48.65;93573.75;5061827;28;20232;-63
2022/06/27 01:47:47;;;;;;;1.53;1.43;;;;;;;26.79;48.75;93576.59;5054924;28;20282;-63
2022/06/27 01:50:32;;;;;;;1.47;1.37;;;;;;;26.77;48.94;93584.50;5056089;28;20221;-63
2022/06/27 01:53:17;;;;;;;2.03;1.83;;;;;;;26.83;48.66;93582.41;5061932;28;20243;-63
2022/06/27 01:56:02;;;;;;;1.70;1.60;;;;;;;26.92;47.94;93586.75;5053481;28;20679;-63
2022/06/27 01:58:48;;;;;;;3.67;1.67;;;;;;;26.75;48.40;93587.38;5054516;28;20243;-62
2022/06/27 02:01:33;;;;;;;4.37;1.80;;;;;;;26.53;49.17;93585.09;5055648;28;20212;-63
2022/06/27 02:04:17;;;;;;;4.77;1.80;;;;;;;26.46;49.41;93598.00;5054460;28;20221;-63
2022/06/27 02:07:02;;;;;;;2.33;1.93;;;;;;;26.12;50.38;93596.28;5057445;28;20228;-62
2022/06/27 02:09:46;;;;;;;6.80;1.70;;;;;;;25.99;50.79;93594.75;5048501;28;20217;-62
2022/06/27 02:12:30;;;;;;;3.83;2.17;;;;;;;25.97;50.92;93602.63;5046658;28;20205;-62
2022/06/27 02:15:14;;;;;;;2.77;2.13;;;;;;;25.07;53.68;93623.19;5050879;28;20646;-62
2022/06/27 02:17:59;;;;;;;5.43;2.10;;;;;;;23.60;58.84;93763.25;5057013;28;20285;-63
2022/06/27 02:20:44;;;;;;;2.17;2.07;;;;;;;24.23;61.52;93732.25;5054442;28;20253;-63
2022/06/27 02:23:28;;;;;;;2.53;1.87;;;;;;;24.79;61.17;93738.16;5053080;28;20240;-62
2022/06/27 02:26:15;;;;;;;3.23;2.00;;;;;;;25.59;58.85;93726.38;5053424;28;20201;-63
2022/06/27 02:29:00;;;;;;;2.93;1.97;;;;;;;26.09;56.77;93729.81;5051679;28;20264;-63
2022/06/27 02:31:49;;;;;;;2.30;1.83;;;;;;;26.58;54.44;93724.53;5054055;28;20229;-63
2022/06/27 02:34:35;;;;;;;6.03;1.87;;;;;;;26.29;55.80;93740.81;5054823;28;20193;-63
2022/06/27 02:37:19;;;;;;;3.90;1.73;;;;;;;25.86;56.84;93733.84;5052028;28;20287;-63
2022/06/27 02:40:04;;;;;;;2.60;1.73;;;;;;;25.69;55.86;93735.84;5054473;28;20226;-63
2022/06/27 02:42:52;;;;;;;2.53;1.40;;;;;;;26.06;54.41;93745.56;5055162;28;20241;-63
2022/06/27 02:45:37;;;;;;;1.97;1.60;;;;;;;26.39;53.41;93748.78;5058915;28;20201;-63
2022/06/27 02:48:24;;;;;;;3.67;1.40;;;;;;;26.15;53.64;93761.47;5054935;28;20201;-63
2022/06/27 02:51:13;;;;;;;1.87;1.53;;;;;;;26.37;52.82;93751.63;5050514;28;20252;-63
2022/06/27 02:54:10;;;;;;;10.20;1.70;;;;;;;26.22;53.13;93761.53;5050103;28;20289;-63
2022/06/27 02:57:21;;;;;;;5.50;1.70;;;;;;;25.39;54.83;93759.13;5045429;28;20257;-63
2022/06/27 03:00:07;;;;;;;1.93;1.23;;;;;;;25.47;54.74;93766.38;5053188;28;20225;-63
2022/06/27 03:02:54;;;;;;;4.50;1.20;;;;;;;25.29;54.31;93772.59;5060915;28;20253;-63
2022/06/27 03:06:06;;;;;;;1.20;1.10;;;;;;;25.46;54.53;93764.94;5056114;28;20205;-63
2022/06/27 03:08:50;;;;;;;1.30;1.10;;;;;;;25.49;54.38;93757.81;5046774;28;20247;-63
2022/06/27 03:11:35;;;;;;;2.37;1.23;;;;;;;25.18;54.75;93756.69;5050848;28;20205;-63
2022/06/27 03:14:19;;;;;;;1.00;1.00;;;;;;;24.97;55.79;93758.53;5056357;28;20205;-63
2022/06/27 03:17:04;;;;;;;1.37;1.20;;;;;;;24.98;55.58;93759.97;5049416;28;20586;-63
2022/06/27 03:20:00;;;;;;;3.93;1.20;;;;;;;25.49;53.48;93752.06;5051944;28;20272;-63
2022/06/27 03:22:55;;;;;;;5.00;1.27;;;;;;;26.13;51.80;93752.81;5048331;28;20197;-63
2022/06/27 03:25:39;;;;;;;2.10;1.20;;;;;;;25.88;52.58;93751.09;5055389;28;20565;-63
2022/06/27 03:28:26;;;;;;;3.97;1.20;;;;;;;26.40;51.32;93755.97;5044461;28;20237;-63
2022/06/27 03:31:15;;;;;;;4.07;1.30;;;;;;;26.13;51.79;93752.09;5053578;28;20273;-63
2022/06/27 03:34:01;;;;;;;3.50;1.43;;;;;;;25.91;52.47;93749.72;5058466;28;20203;-63
2022/06/27 03:36:53;;;;;;;2.50;1.60;;;;;;;25.60;53.43;93753.66;5053175;28;20251;-64
2022/06/27 03:39:38;;;;;;;4.00;1.63;;;;;;;25.87;52.61;93749.66;5049248;28;20324;-63
2022/06/27 03:42:22;;;;;;;1.83;1.63;;;;;;;26.06;51.83;93748.44;5060130;28;20768;-63
2022/06/27 03:45:06;;;;;;;4.43;1.80;;;;;;;26.28;51.68;93745.09;5049197;28;20213;-63
2022/06/27 03:47:54;;;;;;;1.63;1.53;;;;;;;26.29;51.02;93763.06;5054603;28;20694;-63
2022/06/27 03:50:50;;;;;;;1.60;1.50;;;;;;;26.45;50.67;93771.81;5045705;28;20269;-63
2022/06/27 03:53:34;;;;;;;1.37;1.27;;;;;;;25.71;52.63;93784.66;5052806;28;20229;-63
2022/06/27 03:56:19;;;;;;;2.47;1.57;;;;;;;25.58;53.04;93793.81;5055480;28;20260;-63
2022/06/27 03:59:03;;;;;;;3.70;1.60;;;;;;;25.53;53.38;93787.28;5051900;28;20279;-63
2022/06/27 04:01:47;;;;;;;4.50;1.73;;;;;;;26.00;52.10;93796.47;5048205;28;20263;-64
2022/06/27 04:04:31;;;;;;;2.33;1.97;;;;;;;25.88;52.06;93799.19;5052529;28;20220;-64
2022/06/27 04:07:15;;;;;;;4.70;1.60;;;;;;;25.84;52.28;93796.28;5049612;28;20789;-63
2022/06/27 04:10:00;;;;;;;2.13;1.80;;;;;;;26.01;51.98;93792.91;5047922;28;20725;-64
2022/06/27 04:12:45;;;;;;;3.17;2.00;;;;;;;25.56;53.40;93773.66;5039063;28;20577;-64
2022/06/27 04:15:58;;;;;;;2.47;1.97;;;;;;;26.15;51.29;93772.94;5047164;28;20229;-64
2022/06/27 04:19:12;;;;;;;2.57;2.37;;;;;;;25.92;51.92;93784.91;5068474;28;20797;-63
2022/06/27 04:22:14;;;;;;;3.07;2.30;;;;;;;25.82;52.81;93793.38;5048069;28;20201;-63
2022/06/27 04:25:14;;;;;;;3.20;1.97;;;;;;;26.14;52.14;93794.47;5043766;28;20248;-63
2022/06/27 04:28:01;;;;;;;2.10;1.90;;;;;;;26.42;50.78;93782.56;5051626;28;20271;-63
2022/06/27 04:30:47;;;;;;;3.67;2.20;;;;;;;26.41;51.32;93789.03;5047734;28;20279;-63
2022/06/27 04:33:31;;;;;;;3.13;1.90;;;;;;;26.37;51.36;93783.22;5043275;28;20209;-64
2022/06/27 04:36:15;;;;;;;2.70;1.93;;;;;;;26.70;50.42;93793.59;5051899;28;20251;-63
2022/06/27 04:39:03;;;;;;;7.27;2.10;;;;;;;26.68;50.75;93793.59;5054584;28;20327;-64
2022/06/27 04:42:07;;;;;;;2.47;1.87;;;;;;;26.91;50.08;93803.16;5055279;28;20240;-63
2022/06/27 04:44:51;;;;;;;1.97;1.60;;;;;;;26.91;50.08;93811.78;5058427;28;20760;-64
2022/06/27 04:47:38;;;;;;;3.53;1.83;;;;;;;27.18;49.95;93809.81;5058721;28;20324;-62
2022/06/27 04:50:32;;;;;;;3.77;2.00;;;;;;;27.42;49.37;93803.50;5052744;28;20210;-63
2022/06/27 04:53:18;;;;;;;1.93;1.83;;;;;;;27.14;50.24;93806.91;5056588;28;20228;-63
2022/06/27 04:56:02;;;;;;;3.20;1.67;;;;;;;26.73;51.79;93820.94;5047375;28;20733;-63
2022/06/27 04:58:46;;;;;;;5.10;2.10;;;;;;;26.91;51.66;93818.25;5024654;28;20259;-64
2022/06/27 05:01:34;;;;;;;2.73;2.20;;;;;;;27.37;50.14;93805.63;5047528;28;20283;-64
2022/06/27 05:04:22;;;;;;;4.37;1.50;;;;;;;27.13;50.71;93802.59;5047588;28;20225;-64
2022/06/27 05:07:06;;;;;;;5.20;1.70;;;;;;;27.04;50.50;93806.81;5047875;28;20582;-64
2022/06/27 05:09:56;;;;;;;2.77;1.70;;;;;;;26.89;50.93;93811.75;5033061;28;20291;-65
2022/06/27 05:12:41;;;;;;;2.77;1.57;;;;;;;27.42;49.95;93803.50;5048410;28;20236;-64
2022/06/27 05:15:24;;;;;;;2.00;1.60;;;;;;;27.41;49.78;93805.66;5045581;28;20255;-64
2022/06/27 05:18:08;;;;;;;3.27;1.40;;;;;;;27.88;49.17;93794.41;5064653;28;20239;-64
2022/06/27 05:20:52;;;;;;;2.83;1.73;;;;;;;27.97;48.73;93805.22;5055474;28;20602;-64
2022/06/27 05:23:39;;;;;;;3.50;1.80;;;;;;;27.87;48.57;93810.25;5026972;28;20267;-64
2022/06/27 05:26:23;;;;;;;3.53;1.60;;;;;;;28.26;48.01;93808.97;5050475;28;20281;-64
2022/06/27 05:29:09;;;;;;;2.30;1.63;;;;;;;28.45;46.78;93801.78;5046995;28;20885;-64
2022/06/27 05:31:54;;;;;;;4.40;1.77;;;;;;;28.31;46.91;93804.66;5049654;28;20238;-64
2022/06/27 05:34:40;;;;;;;1.70;1.60;;;;;;;28.59;46.46;93801.09;5034440;28;20204;-64
2022/06/27 05:37:24;;;;;;;4.50;1.20;;;;;;;28.91;46.29;93798.28;5053066;28;20229;-64
2022/06/27 05:40:08;;;;;;;1.20;1.10;;;;;;;28.67;46.40;93803.28;5048781;28;20237;-64
2022/06/27 05:42:54;;;;;;;2.27;1.40;;;;;;;28.21;47.16;93795.97;5041035;28;20220;-64
2022/06/27 05:45:39;;;;;;;2.23;1.50;;;;;;;28.61;46.72;93800.38;5045015;28;20221;-64
2022/06/27 05:49:01;;;;;;;1.40;1.30;;;;;;;28.78;46.45;93796.09;5059592;28;21691;-64
2022/06/27 05:51:50;;;;;;;2.87;1.47;;;;;;;28.73;46.87;93794.63;5048290;28;20204;-64
2022/06/27 05:54:35;;;;;;;1.67;1.40;;;;;;;29.07;45.60;93788.88;5047831;28;20224;-64
2022/06/27 05:57:24;;;;;;;3.03;1.53;;;;;;;28.77;46.43;93783.13;5049900;28;20209;-64
2022/06/27 06:00:08;;;;;;;5.40;1.60;;;;;;;28.37;47.63;93790.25;5056331;28;20239;-64
2022/06/27 06:02:58;;;;;;;2.17;1.63;;;;;;;28.57;46.50;93795.34;5052037;28;20225;-65
2022/06/27 06:05:44;;;;;;;2.80;1.00;;;;;;;28.98;46.90;93796.13;5059480;28;20255;-64
2022/06/27 06:08:29;;;;;;;2.03;1.20;;;;;;;29.40;45.88;93797.53;5057397;28;20233;-65
2022/06/27 06:11:14;;;;;;;4.50;1.57;;;;;;;29.76;44.68;93788.78;5053636;28;20333;-64
2022/06/27 06:13:59;;;;;;;2.27;1.33;;;;;;;29.80;44.73;93791.66;5053990;28;20510;-64
2022/06/27 06:16:43;;;;;;;3.83;1.40;;;;;;;29.43;45.21;93790.34;5051909;28;20631;-65
2022/06/27 06:19:29;;;;;;;2.30;1.50;;;;;;;29.82;44.37;93780.09;5051695;28;20272;-64
2022/06/27 06:22:13;;;;;;;4.33;1.40;;;;;;;29.24;46.23;93781.69;5052102;28;20213;-64
2022/06/27 06:24:58;;;;;;;2.80;1.07;;;;;;;29.96;44.37;93782.97;5042982;28;20264;-64
2022/06/27 06:27:44;;;;;;;1.77;1.30;;;;;;;30.47;43.64;93776.91;5055144;28;20217;-64
2022/06/27 06:30:31;;;;;;;1.30;1.20;;;;;;;30.03;43.58;93769.94;5048295;28;20194;-64
2022/06/27 06:33:16;;;;;;;2.83;0.73;;;;;;;29.71;45.23;93767.13;5058335;28;20747;-64
2022/06/27 06:36:01;;;;;;;0.97;0.97;;;;;;;29.99;44.46;93775.75;5047786;28;20202;-64
2022/06/27 06:38:46;;;;;;;2.80;1.00;;;;;;;29.64;44.62;93775.09;5056579;28;20200;-65
2022/06/27 06:41:31;;;;;;;1.23;0.90;;;;;;;29.99;43.83;93766.34;5052561;28;20467;-65
2022/06/27 06:44:16;;;;;;;2.20;1.63;;;;;;;30.72;42.99;93778.22;5049963;28;20213;-65
2022/06/27 06:47:03;;;;;;;2.40;1.10;;;;;;;30.95;42.17;93788.19;5059046;28;20573;-65
2022/06/27 06:50:05;;;;;;;1.20;1.10;;;;;;;30.29;43.28;93779.91;5044591;28;20193;-65
2022/06/27 06:52:51;;;;;;;9.25;1.50;;;;;;;29.90;43.70;93768.50;5046472;28;20648;-65
2022/06/27 06:55:35;;;;;;;3.00;1.03;;;;;;;30.18;43.44;93775.66;5047072;28;20206;-64
2022/06/27 06:58:20;;;;;;;3.63;1.60;;;;;;;29.83;44.04;93772.88;5047572;28;20546;-65
2022/06/27 07:01:05;;;;;;;2.15;1.17;;;;;;;31.21;42.01;93777.84;5047778;28;20232;-64
2022/06/27 07:03:51;;;;;;;2.25;1.10;;;;;;;31.12;42.09;93774.31;5038529;28;20798;-64
2022/06/27 07:06:35;;;;;;;1.25;1.00;;;;;;;31.72;41.57;93781.69;5046635;28;20709;-64
2022/06/27 07:09:18;;;;;;;4.00;1.00;;;;;;;32.30;40.32;93776.69;5047790;28;20200;-64
2022/06/27 07:12:03;;;;;;;4.88;0.93;;;;;;;32.83;39.98;93776.69;5041920;28;20197;-63
2022/06/27 07:14:47;;;;;;;1.02;0.80;;;;;;;32.53;39.77;93780.69;5025942;28;20263;-64
2022/06/27 07:17:43;;;;;;;2.05;1.00;;;;;;;32.59;39.96;93777.00;5038225;28;20242;-64
2022/06/27 07:20:27;;;;;;;1.38;1.00;;;;;;;32.83;39.17;93787.56;5047455;28;20313;-64
2022/06/27 07:23:11;;;;;;;1.40;0.73;;;;;;;33.15;38.76;93781.22;5046926;28;20233;-66
2022/06/27 07:25:56;;;;;;;3.85;0.90;;;;;;;32.69;38.75;93784.88;5044110;28;20197;-64
2022/06/27 07:28:41;;;;;;;1.10;0.90;;;;;;;33.83;37.71;93784.41;5047364;28;20228;-64
2022/06/27 07:31:26;;;;;;;6.75;1.00;;;;;;;33.58;37.21;93780.50;5050654;28;20663;-64
2022/06/27 07:34:11;;;;;;;1.42;0.90;;;;;;;33.79;37.70;93778.69;5051730;28;20209;-64
2022/06/27 07:36:59;;;;;;;1.05;0.70;;;;;;;34.08;37.78;93773.75;5042805;28;20202;-63
2022/06/27 07:39:43;;;;;;;1.75;0.98;;;;;;;35.09;35.43;93770.09;5048719;28;20225;-64
2022/06/27 07:42:28;;;;;;;1.92;0.90;;;;;;;35.30;35.15;93776.91;5046361;28;20840;-65
2022/06/27 07:45:14;;;;;;;0.80;0.75;;;;;;;35.56;34.03;93782.03;5050849;28;20200;-64
2022/06/27 07:47:58;;;;;;;0.73;0.60;;;;;;;35.60;34.36;93772.47;5048357;28;20201;-64
2022/06/27 07:50:42;;;;;;;2.35;0.60;;;;;;;35.64;33.77;93778.91;5048320;28;20217;-64
2022/06/27 07:53:27;;;;;;;0.93;0.70;;;;;;;35.98;32.86;93786.06;5051353;28;20251;-64
2022/06/27 07:56:11;;;;;;;0.80;0.80;;;;;;;36.53;31.91;93786.69;5051556;28;20263;-64
2022/06/27 07:58:56;;;;;;;3.10;0.85;;;;;;;35.46;33.87;93776.47;5050606;28;20259;-65
2022/06/27 08:01:40;;;;;;;1.05;0.95;;;;;;;36.62;32.39;93773.28;5049929;28;20196;-66
2022/06/27 08:04:24;;;;;;;1.27;0.75;;;;;;;37.03;31.71;93782.25;5049321;28;20638;-65
2022/06/27 08:07:09;;;;;;;1.30;0.73;;;;;;;38.37;29.80;93771.84;5059822;28;20197;-65
2022/06/27 08:09:54;;;;;;;1.83;0.75;;;;;;;38.13;30.76;93772.75;5048627;28;20229;-65
2022/06/27 08:12:38;;;;;;;2.53;0.90;;;;;;;36.85;32.11;93766.00;5045583;28;20305;-65
2022/06/27 08:15:22;;;;;;;2.50;0.82;;;;;;;37.26;31.13;93762.53;5054482;28;20206;-65
2022/06/27 08:18:07;;;;;;;2.95;1.05;;;;;;;37.77;31.09;93763.75;5051766;28;20701;-65
2022/06/27 08:20:52;;;;;;;0.90;0.90;;;;;;;37.32;32.46;93769.66;5061568;28;20309;-65
2022/06/27 08:23:37;;;;;;;1.88;0.70;;;;;;;35.80;33.71;93768.34;5045567;28;20217;-65
2022/06/27 08:26:21;;;;;;;0.55;0.55;;;;;;;36.12;33.26;93776.16;5049439;28;20223;-65
2022/06/27 08:29:05;;;;;;;2.25;0.93;;;;;;;36.58;33.14;93771.19;5045008;28;20259;-65
2022/06/27 08:31:52;;;;;;;2.47;0.88;;;;;;;36.95;32.37;93767.91;5045146;28;20223;-65
2022/06/27 08:34:36;;;;;;;1.83;1.05;;;;;;;36.29;32.46;93777.19;5053136;28;20568;-65
2022/06/27 08:37:23;;;;;;;1.85;1.08;;;;;;;36.11;33.20;93780.56;5051495;28;20276;-65
2022/06/27 08:40:10;;;;;;;1.55;0.93;;;;;;;37.30;32.07;93787.25;5053527;28;20263;-65
2022/06/27 08:42:56;;;;;;;3.63;1.02;;;;;;;37.41;31.21;93782.50;5039557;28;20304;-65
2022/06/27 08:45:43;;;;;;;3.90;1.02;;;;;;;37.71;30.62;93778.59;5053881;28;20198;-65
2022/06/27 08:48:28;;;;;;;2.35;1.00;;;;;;;38.80;30.31;93789.25;5057799;28;20615;-65
2022/06/27 08:51:13;;;;;;;1.63;0.80;;;;;;;38.13;30.84;93779.31;5053639;28;20265;-65
2022/06/27 08:53:57;;;;;;;3.08;0.88;;;;;;;39.35;28.94;93781.25;5050293;28;20228;-65
2022/06/27 08:56:42;;;;;;;3.05;1.00;;;;;;;38.52;30.77;93775.69;5046291;28;20260;-66
2022/06/27 08:59:28;;;;;;;3.55;0.85;;;;;;;39.19;28.81;93776.03;5066637;28;20244;-65
2022/06/27 09:02:17;;;;;;;3.20;1.02;;;;;;;38.80;30.58;93774.59;5044539;28;20248;-63
2022/06/27 09:05:03;;;;;;;4.25;1.00;;;;;;;37.74;30.39;93771.16;5049480;28;20289;-64
2022/06/27 09:07:54;;;;;;;2.75;1.02;;;;;;;38.54;29.80;93760.97;5051074;28;20280;-63
2022/06/27 09:10:42;;;;;;;4.00;1.00;;;;;;;38.54;28.71;93772.69;5046782;28;20229;-64
2022/06/27 09:13:27;;;;;;;1.42;1.00;;;;;;;39.78;28.41;93771.38;5042005;28;20197;-65
2022/06/27 09:16:12;;;;;;;4.15;1.13;;;;;;;40.15;27.37;93773.44;5048955;28;20285;-64
2022/06/27 09:18:56;;;;;;;0.95;0.80;;;;;;;38.66;31.19;93772.22;5053290;28;20252;-66
2022/06/27 09:21:40;;;;;;;2.10;0.98;;;;;;;40.30;27.43;93776.50;5050419;28;20273;-65
2022/06/27 09:24:25;;;;;;;1.30;1.00;;;;;;;39.74;28.58;93774.50;5048848;28;20260;-66
2022/06/27 09:27:09;;;;;;;4.95;1.20;;;;;;;38.78;30.64;93762.94;5053440;28;20260;-65
2022/06/27 09:29:53;;;;;;;5.57;0.98;;;;;;;41.39;28.87;93773.59;5056792;28;20717;-65
2022/06/27 09:32:38;;;;;;;7.53;1.08;;;;;;;40.02;30.18;93757.88;5057413;28;20202;-65
2022/06/27 09:35:32;;;;;;;8.25;1.05;;;;;;;40.66;29.79;93756.50;5051941;28;20735;-66
2022/06/27 09:38:16;;;;;;;1.90;0.93;;;;;;;40.50;29.32;93757.22;5059884;28;20197;-65
2022/06/27 09:41:03;;;;;;;1.42;0.65;;;;;;;41.55;28.64;93766.94;5052342;28;20220;-65
2022/06/27 09:43:49;;;;;;;0.70;0.70;;;;;;;39.95;30.12;93753.78;5053442;28;20568;-65
2022/06/27 09:46:42;;;;;;;1.10;0.80;;;;;;;39.89;29.66;93751.13;5056577;28;20201;-66
2022/06/27 09:49:31;;;;;;;2.45;0.80;;;;;;;39.55;30.69;93751.09;5049430;28;20264;-66
2022/06/27 09:52:20;;;;;;;1.83;0.90;;;;;;;40.96;28.78;93752.13;5048667;28;20206;-66
2022/06/27 09:55:06;;;;;;;2.30;0.88;;;;;;;40.53;29.17;93752.69;5053734;28;20212;-65
2022/06/27 09:57:52;;;;;;;1.27;0.70;;;;;;;40.84;28.07;93761.53;5052159;28;20302;-65
2022/06/27 10:00:36;;;;;;;2.05;0.80;;;;;;;41.05;29.14;93761.97;5055388;28;20648;-65
2022/06/27 10:03:22;;;;;;;2.92;1.00;;;;;;;39.11;30.47;93752.91;5047836;28;20225;-66
2022/06/27 10:06:07;;;;;;;3.60;0.90;;;;;;;40.89;28.62;93762.75;5059803;28;20734;-65
2022/06/27 10:08:52;;;;;;;4.20;1.25;;;;;;;41.45;27.76;93764.47;5058840;28;20267;-69
2022/06/27 10:11:37;;;;;;;2.38;0.80;;;;;;;40.47;27.85;93758.84;5044909;28;20245;-67
2022/06/27 10:14:23;;;;;;;2.50;0.98;;;;;;;43.02;26.22;93754.81;5055552;28;20194;-65
2022/06/27 10:17:13;;;;;;;4.38;0.93;;;;;;;42.23;26.31;93762.00;5055837;28;20209;-66
2022/06/27 10:20:15;;;;;;;1.95;0.98;;;;;;;41.47;27.13;93752.63;5048119;28;20772;-68
2022/06/27 10:23:09;;;;;;;3.38;0.98;;;;;;;42.94;25.40;93755.97;5052282;28;20207;-66
2022/06/27 10:25:54;;;;;;;2.75;0.82;;;;;;;40.90;27.94;93761.25;5055425;28;20300;-66
2022/06/27 10:28:38;;;;;;;3.58;0.90;;;;;;;43.80;24.48;93755.47;5052425;28;20268;-68
2022/06/27 10:31:22;;;;;;;2.85;0.95;;;;;;;44.25;23.65;93756.47;5050276;28;20189;-68
2022/06/27 10:34:06;;;;;;;3.22;0.80;;;;;;;44.14;23.83;93752.69;5052953;28;20239;-69
2022/06/27 10:37:33;;;;;;;1.98;0.95;;;;;;;44.38;22.79;93756.44;5045077;28;20241;-69
2022/06/27 10:40:19;;;;;;;2.35;1.00;;;;;;;45.82;21.62;93774.59;5053494;28;20232;-70
2022/06/27 10:43:03;;;;;;;1.70;0.90;;;;;;;45.98;22.31;93772.09;5052835;28;20579;-72
2022/06/27 10:45:47;;;;;;;5.22;1.02;;;;;;;42.70;23.94;93766.84;5050138;28;20205;-69
2022/06/27 10:48:39;;;;;;;4.60;1.10;;;;;;;44.63;23.13;93764.50;5053750;28;20213;-71
2022/06/27 10:51:26;;;;;;;7.63;1.00;;;;;;;43.86;23.97;93760.31;5053268;28;20725;-70
2022/06/27 10:54:13;;;;;;;2.95;1.25;;;;;;;43.15;24.25;93762.13;5050075;28;20205;-70
2022/06/27 10:56:57;;;;;;;3.63;1.20;;;;;;;43.96;23.36;93762.66;5043430;28;20277;-71
2022/06/27 10:59:42;;;;;;;1.10;1.00;;;;;;;44.06;22.62;93759.13;5040097;28;20263;-69
2022/06/27 11:02:27;;;;;;;3.08;0.82;;;;;;;44.85;22.96;93769.06;5041515;28;20252;-69
2022/06/27 11:05:11;;;;;;;2.50;1.17;;;;;;;44.92;21.77;93772.31;5044265;28;20677;-69
2022/06/27 11:07:56;;;;;;;4.32;1.00;;;;;;;46.32;20.76;93780.91;5045633;28;20209;-71
2022/06/27 11:10:42;;;;;;;3.95;1.20;;;;;;;46.22;20.87;93783.03;5047491;28;20205;-71
2022/06/27 11:13:40;;;;;;;2.25;0.95;;;;;;;46.07;21.57;93778.88;5052481;28;20197;-71
2022/06/27 11:16:26;;;;;;;4.30;1.00;;;;;;;45.69;20.88;93785.81;5046800;28;20732;-69
2022/06/27 11:22:32;;;;;;;4.40;1.10;;;;;;;44.66;23.11;93783.53;5047893;28;20202;-70
2022/06/27 11:25:19;;;;;;;2.15;0.70;;;;;;;43.01;24.48;93788.75;5047801;28;20880;-69
2022/06/27 11:34:16;;;;;;;2.63;1.02;;;;;;;42.64;25.23;93796.63;5049363;28;20240;-70
2022/06/27 11:37:08;;;;;;;1.23;0.80;;;;;;;43.54;24.25;93796.09;5045513;28;20686;-70
2022/06/27 11:40:11;;;;;;;3.85;0.90;;;;;;;42.08;25.46;93805.50;5049895;28;20661;-69
2022/06/27 11:42:55;;;;;;;2.83;0.95;;;;;;;43.94;23.86;93807.09;5044352;28;20560;-69
2022/06/27 11:45:43;;;;;;;4.13;1.00;;;;;;;45.09;22.74;93808.94;5050749;28;20323;-69
2022/06/27 11:48:27;;;;;;;2.58;0.80;;;;;;;42.97;24.08;93812.56;5045407;28;20674;-70
2022/06/27 11:51:23;;;;;;;3.30;1.08;;;;;;;43.65;23.17;93813.22;5046183;28;20201;-71
2022/06/27 11:54:15;;;;;;;2.35;0.98;;;;;;;41.97;25.32;93811.91;5048048;28;20209;-69
2022/06/27 11:56:59;;;;;;;1.48;0.98;;;;;;;45.91;21.12;93816.25;5045503;28;20670;-71
2022/06/27 11:59:48;;;;;;;3.70;1.10;;;;;;;45.28;22.11;93828.47;5047955;28;20234;-72
2022/06/27 12:02:34;;;;;;;3.47;0.93;;;;;;;44.18;22.77;93835.19;5044329;28;20204;-71
2022/06/27 12:05:20;;;;;;;4.35;0.93;;;;;;;43.84;23.04;93822.41;5053854;28;20251;-71
2022/06/27 12:08:09;;;;;;;2.75;1.10;;;;;;;43.68;23.50;93835.91;5050832;28;20228;-70
2022/06/27 12:11:18;;;;;;;3.97;0.90;;;;;;;45.11;21.69;93841.38;5044258;28;20332;-71
2022/06/27 12:14:02;;;;;;;2.97;1.00;;;;;;;43.89;23.27;93832.47;5045128;28;20200;-70
2022/06/27 12:16:49;;;;;;;1.27;0.80;;;;;;;45.37;21.87;93853.06;5059059;28;20693;-68
2022/06/27 12:19:33;;;;;;;2.47;1.00;;;;;;;43.88;23.71;93857.63;5048634;28;20229;-71
2022/06/27 12:22:21;;;;;;;2.25;0.93;;;;;;;42.93;24.45;93862.94;5044494;28;20213;-68
2022/06/27 12:25:05;;;;;;;3.88;1.20;;;;;;;43.22;24.04;93859.84;5051285;28;20259;-69
2022/06/27 12:27:49;;;;;;;1.70;1.00;;;;;;;45.78;21.87;93863.72;5051430;28;20237;-72
2022/06/27 12:30:33;;;;;;;3.28;1.15;;;;;;;45.44;21.46;93865.94;5048192;28;20209;-72
2022/06/27 12:33:18;;;;;;;6.05;1.05;;;;;;;45.46;22.00;93868.78;5057412;28;20259;-71
2022/06/27 12:36:02;;;;;;;3.42;0.90;;;;;;;44.39;22.18;93866.50;5045738;28;20248;-72
2022/06/27 12:38:47;;;;;;;4.28;1.00;;;;;;;44.15;22.89;93884.13;5048514;28;20286;-71
2022/06/27 12:41:31;;;;;;;5.18;1.00;;;;;;;45.43;22.00;93862.25;5048871;28;20232;-71
2022/06/27 12:44:16;;;;;;;3.97;1.00;;;;;;;45.87;21.08;93869.81;5049584;28;20205;-72
2022/06/27 12:47:00;;;;;;;4.85;1.00;;;;;;;46.04;20.80;93870.19;5051930;28;20258;-71
2022/06/27 12:49:45;;;;;;;3.53;1.20;;;;;;;46.12;20.79;93874.84;5060354;28;20197;-72
2022/06/27 12:52:28;;;;;;;2.10;1.10;;;;;;;47.47;18.63;93883.28;5035612;28;20201;-72
2022/06/27 12:55:12;;;;;;;2.00;0.60;;;;;;;47.86;18.68;93880.50;5046733;28;20236;-71
2022/06/27 12:57:56;;;;;;;7.78;1.02;;;;;;;47.45;19.04;93877.50;5046736;28;20614;-68
2022/06/27 13:00:41;;;;;;;3.67;0.80;;;;;;;46.56;20.14;93871.13;5047322;28;20756;-72
2022/06/27 13:03:25;;;;;;;5.53;1.27;;;;;;;45.92;20.95;93880.56;5055392;28;20221;-72
2022/06/27 13:06:09;;;;;;;5.25;0.68;;;;;;;45.32;21.76;93875.56;5051715;28;20247;-71
2022/06/27 13:08:52;;;;;;;3.10;0.90;;;;;;;47.93;20.24;93890.38;5054055;28;20209;-72
2022/06/27 13:11:36;;;;;;;4.47;0.75;;;;;;;43.98;23.50;93892.50;5058310;28;20198;-72
2022/06/27 13:14:20;;;;;;;4.53;0.70;;;;;;;44.17;23.27;93886.25;5052528;28;20196;-73